Terminal Aerodrome Forecast
Issued by NWS

Home | Current Version | Previous Version | Text Only | Print | Product List | Glossary Off
Versions: 1 2 3 4 5 6 7 8 9 10 11 12 13 14 15 16 17 18 19 20 21

688
FTUS43 KBIS 182228 AAA
TAFJMS
TAF AMD
KJMS 182228Z 1822/1918 01018G27KT P6SM VCSH SCT012 BKN025
      TEMPO 1822/1824 3SM -SN BKN012
     FM190000 36018KT P6SM OVC025
     FM190400 36011KT P6SM BKN035=

USA.gov is the U.S. government's official web portal to all federal, state and local government web resources and services.